Time;durP1;ratioP1;P1;durP2;ratioP2;P2;SDS_P1;SDS_P2;PMS_P1;PMS_P2;Temp;Humidity;BMP_temperature;BMP_pressure;BME280_temperature;BME280_humidity;BME280_pressure;Samples;Min_cycle;Max_cycle;Signal;HPM_P1;HPM_P2
2022/03/18 00:02:24;;;;;;;;;;;;;;;6.06;99.86;98009.34;4948520;29;20359;-70
2022/03/18 00:04:51;;;;;;;;;;;;;;;6.06;99.70;98009.34;4942243;29;19954;-70
2022/03/18 00:07:18;;;;;;;;;;;;;;;6.05;100.00;98006.94;4947045;29;20401;-70
2022/03/18 00:09:44;;;;;;;;;;;;;;;6.03;100.00;98007.06;4947693;29;19966;-70
2022/03/18 00:12:12;;;;;;;;;;;;;;;6.04;100.00;98013.09;4950726;29;20338;-70
2022/03/18 00:14:39;;;;;;;;;;;;;;;6.01;100.00;98014.22;4941832;29;19948;-70
2022/03/18 00:17:06;;;;;;;;;;;;;;;5.99;100.00;98016.16;4946656;29;20359;-70
2022/03/18 00:19:33;;;;;;;;;;;;;;;6.00;99.20;98014.34;4928259;29;19960;-70
2022/03/18 00:22:01;;;;;;;;;;;;;;;5.99;99.23;98020.53;4948686;29;19959;-70
2022/03/18 00:24:33;;;;;;;;;;;;;;;6.01;99.77;98014.22;4951819;29;19965;-71
2022/03/18 00:27:05;;;;;;;;;;;;;;;6.02;99.46;98020.22;4947981;29;19990;-69
2022/03/18 00:29:32;;;;;;;;;;;;;;;6.01;100.00;98027.25;4940835;29;20017;-70
2022/03/18 00:31:58;;;;;;;;;;;;;;;5.99;100.00;98023.16;4941379;29;19961;-70
2022/03/18 00:34:24;;;;;;;;;;;;;;;5.98;99.62;98014.50;4949130;29;19952;-70
2022/03/18 00:36:50;;;;;;;;;;;;;;;6.02;99.61;98017.63;4945467;29;20309;-70
2022/03/18 00:39:16;;;;;;;;;;;;;;;6.01;99.68;98022.03;4948866;29;20371;-70
2022/03/18 00:41:42;;;;;;;;;;;;;;;6.01;99.48;98019.44;4946339;29;20141;-71
2022/03/18 00:44:08;;;;;;;;;;;;;;;6.01;99.28;98021.22;4941842;29;19967;-70
2022/03/18 00:46:34;;;;;;;;;;;;;;;6.01;98.29;98022.03;4946835;29;19961;-70
2022/03/18 00:54:30;;;;;;;;;;;;;;;5.92;100.00;98019.47;4947096;29;19974;-70
2022/03/18 00:56:56;;;;;;;;;;;;;;;5.90;100.00;98020.44;4946336;29;19959;-70
2022/03/18 00:59:22;;;;;;;;;;;;;;;5.88;99.04;98016.34;4941022;29;20417;-70
2022/03/18 01:01:52;;;;;;;;;;;;;;;5.87;100.00;98018.13;4949177;29;19959;-70
2022/03/18 01:04:21;;;;;;;;;;;;;;;5.88;99.50;98021.56;4950518;29;19974;-70
2022/03/18 01:06:49;;;;;;;;;;;;;;;5.86;99.77;98021.72;4943051;29;19953;-70
2022/03/18 01:09:17;;;;;;;;;;;;;;;5.84;100.00;98015.81;4946202;29;19965;-71
2022/03/18 01:11:43;;;;;;;;;;;;;;;5.83;100.00;98021.19;4945498;29;19964;-70
2022/03/18 01:14:09;;;;;;;;;;;;;;;5.82;99.59;98030.78;4946556;29;19954;-70
2022/03/18 01:16:35;;;;;;;;;;;;;;;5.82;100.00;98017.75;4950261;29;19956;-71
2022/03/18 01:19:01;;;;;;;;;;;;;;;5.84;99.83;98026.25;4945557;29;20379;-70
2022/03/18 01:21:26;;;;;;;;;;;;;;;5.86;99.13;98018.28;4942466;29;19958;-70
2022/03/18 01:23:52;;;;;;;;;;;;;;;5.86;100.00;98013.91;4949525;29;19974;-70
2022/03/18 01:26:18;;;;;;;;;;;;;;;5.87;100.00;98014.72;4946849;29;20026;-71
2022/03/18 01:28:44;;;;;;;;;;;;;;;5.84;97.94;98012.41;4947550;29;19967;-70
2022/03/18 01:31:10;;;;;;;;;;;;;;;5.83;98.66;98018.56;4944139;29;19957;-70
2022/03/18 01:33:37;;;;;;;;;;;;;;;5.81;100.00;98023.09;4945339;29;19970;-71
2022/03/18 01:36:03;;;;;;;;;;;;;;;5.79;99.91;98018.03;4944839;29;19963;-70
2022/03/18 01:38:30;;;;;;;;;;;;;;;5.78;100.00;98026.03;4945628;29;19959;-70
2022/03/18 01:40:56;;;;;;;;;;;;;;;5.75;100.00;98013.28;4949502;29;19964;-70
2022/03/18 01:43:21;;;;;;;;;;;;;;;5.73;100.00;98015.22;4929282;29;19966;-72
2022/03/18 01:45:49;;;;;;;;;;;;;;;5.69;100.00;98023.34;4943646;29;20066;-71
2022/03/18 01:48:15;;;;;;;;;;;;;;;5.69;100.00;98020.75;4946792;29;20313;-70
2022/03/18 01:50:41;;;;;;;;;;;;;;;5.66;99.11;98021.00;4946222;29;19957;-70
2022/03/18 01:53:07;;;;;;;;;;;;;;;5.65;99.04;98018.59;4947931;29;19955;-70
2022/03/18 01:55:33;;;;;;;;;;;;;;;5.65;99.16;98023.78;4947295;29;19972;-70
2022/03/18 01:57:59;;;;;;;;;;;;;;;5.65;99.49;98022.00;4941689;29;20309;-69
2022/03/18 02:00:26;;;;;;;;;;;;;;;5.67;99.92;98024.47;4951196;28;19958;-70
2022/03/18 02:02:52;;;;;;;;;;;;;;;5.66;100.00;98028.00;4950551;29;19989;-70
2022/03/18 02:05:18;;;;;;;;;;;;;;;5.63;99.82;98030.94;4950303;29;19962;-70
2022/03/18 02:07:44;;;;;;;;;;;;;;;5.64;99.28;98028.16;4947118;29;19958;-70
2022/03/18 02:10:10;;;;;;;;;;;;;;;5.61;99.59;98028.47;4950408;29;19961;-70
2022/03/18 02:12:36;;;;;;;;;;;;;;;5.60;100.00;98031.19;4933250;29;19962;-70
2022/03/18 02:15:02;;;;;;;;;;;;;;;5.58;99.63;98035.72;4945859;29;20051;-70
2022/03/18 02:17:28;;;;;;;;;;;;;;;5.56;99.97;98035.88;4948020;29;20322;-70
2022/03/18 02:19:54;;;;;;;;;;;;;;;5.55;99.91;98039.47;4953882;29;19969;-70
2022/03/18 02:22:23;;;;;;;;;;;;;;;5.55;100.00;98031.66;4934000;29;19964;-70
2022/03/18 02:24:53;;;;;;;;;;;;;;;5.55;100.00;98034.25;4945851;29;19959;-70
2022/03/18 02:27:19;;;;;;;;;;;;;;;5.54;100.00;98032.59;4950003;29;19966;-70
2022/03/18 02:29:45;;;;;;;;;;;;;;;5.49;100.00;98033.03;4951670;29;20410;-70
2022/03/18 02:32:13;;;;;;;;;;;;;;;5.48;100.00;98036.63;4948293;29;19964;-70
2022/03/18 02:34:39;;;;;;;;;;;;;;;5.49;100.00;98038.25;4947322;29;20438;-71
2022/03/18 02:37:06;;;;;;;;;;;;;;;5.48;100.00;98039.22;4947655;29;19955;-70
2022/03/18 02:39:32;;;;;;;;;;;;;;;5.48;100.00;98041.84;4950767;29;19957;-70
2022/03/18 02:41:58;;;;;;;;;;;;;;;5.49;100.00;98043.44;4953118;29;19955;-70
2022/03/18 02:44:24;;;;;;;;;;;;;;;5.50;100.00;98039.06;4944856;29;19975;-70
2022/03/18 02:46:50;;;;;;;;;;;;;;;5.50;100.00;98041.66;4948786;29;20307;-70
2022/03/18 02:49:16;;;;;;;;;;;;;;;5.48;100.00;98047.03;4932869;29;19959;-70
2022/03/18 02:51:42;;;;;;;;;;;;;;;5.45;100.00;98052.50;4947769;29;20316;-70
2022/03/18 02:54:09;;;;;;;;;;;;;;;5.44;100.00;98044.88;4951270;29;19963;-70
2022/03/18 02:56:35;;;;;;;;;;;;;;;5.44;100.00;98045.69;4945848;29;19970;-70
2022/03/18 02:59:02;;;;;;;;;;;;;;;5.46;100.00;98048.16;4945265;29;20292;-70
2022/03/18 03:01:28;;;;;;;;;;;;;;;5.46;100.00;98055.97;4946644;29;20024;-70
2022/03/18 03:03:54;;;;;;;;;;;;;;;5.45;100.00;98056.91;4948719;29;20340;-70
2022/03/18 03:09:04;;;;;;;;;;;;;;;5.39;100.00;98068.69;4948404;29;19967;-70
2022/03/18 03:11:30;;;;;;;;;;;;;;;5.36;100.00;98061.19;4950628;28;19965;-71
2022/03/18 03:13:56;;;;;;;;;;;;;;;5.36;100.00;98068.19;4950944;29;19974;-70
2022/03/18 03:16:22;;;;;;;;;;;;;;;5.35;100.00;98072.56;4948791;29;19966;-70
2022/03/18 03:18:48;;;;;;;;;;;;;;;5.36;100.00;98069.00;4947994;29;19961;-70
2022/03/18 03:21:14;;;;;;;;;;;;;;;5.36;100.00;98071.59;4943141;29;19961;-70
2022/03/18 03:23:41;;;;;;;;;;;;;;;5.33;100.00;98071.06;4946722;29;19964;-71
2022/03/18 03:26:06;;;;;;;;;;;;;;;5.29;100.00;98073.97;4952860;29;19997;-71
2022/03/18 03:28:33;;;;;;;;;;;;;;;5.32;100.00;98082.44;4942335;29;19965;-70
2022/03/18 03:31:00;;;;;;;;;;;;;;;5.33;100.00;98084.06;4952026;29;19953;-70
2022/03/18 03:33:26;;;;;;;;;;;;;;;5.32;100.00;98085.88;4949728;29;20343;-70
2022/03/18 03:35:52;;;;;;;;;;;;;;;5.34;100.00;98078.72;4947798;29;19956;-70
2022/03/18 03:38:19;;;;;;;;;;;;;;;5.31;100.00;98083.41;4945665;29;19960;-71
2022/03/18 03:40:44;;;;;;;;;;;;;;;5.29;100.00;98092.19;4947932;29;19967;-72
2022/03/18 03:43:10;;;;;;;;;;;;;;;5.28;100.00;98103.53;4947959;29;19967;-70
2022/03/18 03:45:37;;;;;;;;;;;;;;;5.31;100.00;98091.22;4933946;29;19960;-70
2022/03/18 03:48:04;;;;;;;;;;;;;;;5.32;100.00;98092.84;4945900;29;20437;-70
2022/03/18 03:50:32;;;;;;;;;;;;;;;5.29;100.00;98093.94;4947044;29;20472;-70
2022/03/18 03:52:58;;;;;;;;;;;;;;;5.29;100.00;98104.34;4948804;29;19956;-71
2022/03/18 03:55:24;;;;;;;;;;;;;;;5.34;100.00;98101.34;4948530;29;19954;-71
2022/03/18 03:57:50;;;;;;;;;;;;;;;5.34;100.00;98102.16;4948385;29;19962;-71
2022/03/18 04:00:16;;;;;;;;;;;;;;;5.32;100.00;98103.25;4946208;29;19993;-70
2022/03/18 04:02:45;;;;;;;;;;;;;;;5.30;100.00;98098.19;4947397;29;19970;-70
2022/03/18 04:05:12;;;;;;;;;;;;;;;5.29;100.00;98105.19;4946555;29;19950;-70
2022/03/18 04:07:39;;;;;;;;;;;;;;;5.27;99.92;98107.13;4947540;29;20446;-70
2022/03/18 04:10:06;;;;;;;;;;;;;;;5.26;100.00;98110.66;4943160;29;20433;-70
2022/03/18 04:12:34;;;;;;;;;;;;;;;5.28;100.00;98118.31;4951463;29;20326;-70
2022/03/18 04:15:05;;;;;;;;;;;;;;;5.28;99.98;98115.72;4953097;29;20336;-70
2022/03/18 04:17:37;;;;;;;;;;;;;;;5.27;100.00;98116.69;4944915;29;20424;-70
2022/03/18 04:20:05;;;;;;;;;;;;;;;5.25;100.00;98118.63;4943200;29;19954;-70
2022/03/18 04:22:31;;;;;;;;;;;;;;;5.24;100.00;98123.00;4951209;29;19959;-70
2022/03/18 04:24:57;;;;;;;;;;;;;;;5.25;100.00;98123.84;4947969;29;19993;-70
2022/03/18 04:27:23;;;;;;;;;;;;;;;5.23;100.00;98125.75;4940617;29;19964;-70
2022/03/18 04:29:49;;;;;;;;;;;;;;;5.20;100.00;98121.63;4950222;29;20473;-70
2022/03/18 04:32:15;;;;;;;;;;;;;;;5.19;100.00;98130.41;4950301;29;20385;-71
2022/03/18 04:34:40;;;;;;;;;;;;;;;5.18;100.00;98127.94;4947844;29;20024;-70
2022/03/18 04:37:06;;;;;;;;;;;;;;;5.16;100.00;98143.69;4946988;29;20004;-70
2022/03/18 04:39:32;;;;;;;;;;;;;;;5.14;100.00;98140.41;4945242;29;19975;-70
2022/03/18 04:41:58;;;;;;;;;;;;;;;5.15;100.00;98141.25;4932139;29;19959;-70
2022/03/18 04:44:24;;;;;;;;;;;;;;;5.16;100.00;98146.28;4945431;29;20056;-70
2022/03/18 04:46:50;;;;;;;;;;;;;;;5.14;100.00;98139.59;4947636;29;19968;-70
2022/03/18 04:49:16;;;;;;;;;;;;;;;5.12;100.00;98150.13;4941237;29;19969;-71
2022/03/18 04:51:42;;;;;;;;;;;;;;;5.12;100.00;98157.13;4946303;29;20319;-70
2022/03/18 04:54:08;;;;;;;;;;;;;;;5.09;100.00;98150.44;4951567;29;20404;-70
2022/03/18 04:59:19;;;;;;;;;;;;;;;5.09;100.00;98153.03;4945615;29;19959;-70
2022/03/18 05:01:46;;;;;;;;;;;;;;;5.12;100.00;98151.91;4945938;29;19965;-71
2022/03/18 05:04:12;;;;;;;;;;;;;;;5.11;100.00;98155.50;4942262;29;19983;-70
2022/03/18 05:06:39;;;;;;;;;;;;;;;5.12;100.00;98159.72;4949500;29;19970;-70
2022/03/18 05:09:05;;;;;;;;;;;;;;;5.11;100.00;98174.50;4946898;29;19958;-70
2022/03/18 05:11:31;;;;;;;;;;;;;;;5.11;100.00;98161.50;4942956;29;19956;-70
2022/03/18 05:13:58;;;;;;;;;;;;;;;5.12;100.00;98170.94;4952574;29;20004;-70
2022/03/18 05:16:25;;;;;;;;;;;;;;;5.13;100.00;98176.97;4941909;29;19955;-70
2022/03/18 05:18:54;;;;;;;;;;;;;;;5.14;100.00;98179.41;4945348;29;19954;-71
2022/03/18 05:21:19;;;;;;;;;;;;;;;5.14;100.00;98182.03;4926581;29;20397;-70
2022/03/18 05:23:46;;;;;;;;;;;;;;;5.13;100.00;98182.19;4945802;29;19987;-70
2022/03/18 05:26:12;;;;;;;;;;;;;;;5.14;100.00;98183.81;4949276;29;19986;-70
2022/03/18 05:28:39;;;;;;;;;;;;;;;5.15;99.31;98185.47;4945248;29;20442;-70
2022/03/18 05:31:04;;;;;;;;;;;;;;;5.14;99.38;98189.81;4944893;29;19965;-70
2022/03/18 05:33:30;;;;;;;;;;;;;;;5.14;99.71;98194.22;4944362;29;19963;-70
2022/03/18 05:35:56;;;;;;;;;;;;;;;5.11;99.21;98197.09;4948813;28;20408;-70
2022/03/18 05:38:22;;;;;;;;;;;;;;;5.06;99.32;98198.34;4933811;29;19963;-70
2022/03/18 05:40:48;;;;;;;;;;;;;;;5.07;100.00;98191.34;4949003;29;19964;-70
2022/03/18 05:43:14;;;;;;;;;;;;;;;5.05;100.00;98194.09;4947127;29;20490;-70
2022/03/18 05:45:40;;;;;;;;;;;;;;;5.04;100.00;98200.25;4948246;29;19967;-70
2022/03/18 05:48:09;;;;;;;;;;;;;;;5.06;99.86;98197.50;4954471;29;20405;-70
2022/03/18 05:50:35;;;;;;;;;;;;;;;5.07;100.00;98199.16;4944659;29;19957;-70
2022/03/18 05:53:01;;;;;;;;;;;;;;;5.07;99.83;98210.38;4951960;29;19968;-70
2022/03/18 05:56:52;;;;;;;;;;;;;;;5.06;99.87;98195.75;4952149;29;20347;-70
2022/03/18 05:58:14;;;;;;;;;;;;;;;5.07;99.75;98209.56;4945952;29;19960;-70
2022/03/18 06:00:42;;;;;;;;;;;;;;;5.04;99.58;98212.41;4949866;29;19962;-70
2022/03/18 06:03:08;;;;;;;;;;;;;;;5.00;99.35;98211.91;4948905;29;20024;-70
2022/03/18 06:05:34;;;;;;;;;;;;;;;5.00;99.47;98218.88;4949059;29;19964;-70
2022/03/18 06:11:48;;;;;;;;;;;;;;;5.00;99.38;98218.88;4926232;29;20009;-70
2022/03/18 06:13:30;;;;;;;;;;;;;;;4.98;99.64;98228.59;4946992;29;20334;-70
2022/03/18 06:15:56;;;;;;;;;;;;;;;5.02;100.00;98235.16;4947970;29;19966;-70
2022/03/18 06:18:21;;;;;;;;;;;;;;;5.02;99.46;98229.97;4953214;29;20371;-70
2022/03/18 06:20:50;;;;;;;;;;;;;;;5.03;100.00;98232.41;4949605;29;20368;-70
2022/03/18 06:23:16;;;;;;;;;;;;;;;5.04;99.82;98241.03;4951206;29;19966;-71
2022/03/18 06:25:43;;;;;;;;;;;;;;;5.04;100.00;98241.03;4945105;29;19984;-70
2022/03/18 06:28:09;;;;;;;;;;;;;;;5.06;100.00;98241.72;4946274;29;19961;-70
2022/03/18 06:30:35;;;;;;;;;;;;;;;5.06;100.00;98233.91;4951406;29;19969;-70
2022/03/18 06:33:01;;;;;;;;;;;;;;;5.05;100.00;98243.50;4951054;29;20007;-70
2022/03/18 06:35:27;;;;;;;;;;;;;;;5.04;100.00;98235.81;4942208;29;20435;-70
2022/03/18 06:37:54;;;;;;;;;;;;;;;5.03;100.00;98253.22;4952177;29;19950;-70
2022/03/18 06:40:20;;;;;;;;;;;;;;;5.05;100.00;98256.50;4948111;29;19958;-70
2022/03/18 06:42:46;;;;;;;;;;;;;;;5.05;99.87;98256.50;4949551;29;19955;-70
2022/03/18 06:45:12;;;;;;;;;;;;;;;5.06;99.75;98255.56;4946226;29;20030;-70
2022/03/18 06:47:37;;;;;;;;;;;;;;;5.05;99.65;98256.50;4948518;28;19974;-70
2022/03/18 06:50:04;;;;;;;;;;;;;;;5.07;99.62;98264.16;4953190;29;20382;-70
2022/03/18 06:52:30;;;;;;;;;;;;;;;5.09;99.38;98265.66;4949098;29;19963;-70
2022/03/18 06:54:56;;;;;;;;;;;;;;;5.11;99.63;98264.72;4946893;29;19988;-69
2022/03/18 06:57:22;;;;;;;;;;;;;;;5.13;100.00;98266.22;4944830;29;20432;-70
2022/03/18 06:59:48;;;;;;;;;;;;;;;5.09;99.36;98268.25;4948326;29;20423;-70
2022/03/18 07:02:15;;;;;;;;;;;;;;;5.12;99.92;98268.94;4948138;29;20004;-70
2022/03/18 07:04:41;;;;;;;;;;;;;;;5.11;99.96;98262.13;4949060;29;20010;-70
2022/03/18 07:07:07;;;;;;;;;;;;;;;5.14;99.32;98261.84;4947676;29;19963;-70
2022/03/18 07:09:33;;;;;;;;;;;;;;;5.13;99.88;98262.81;4944321;29;20480;-70
2022/03/18 07:12:00;;;;;;;;;;;;;;;5.12;99.65;98269.75;4930108;29;19967;-69
2022/03/18 07:14:26;;;;;;;;;;;;;;;5.14;99.69;98274.84;4952785;29;20420;-70
2022/03/18 07:19:38;;;;;;;;;;;;;;;5.21;99.50;98276.75;4943593;29;19952;-70
2022/03/18 07:22:07;;;;;;;;;;;;;;;5.26;99.29;98271.94;4945314;29;19958;-70
2022/03/18 07:24:33;;;;;;;;;;;;;;;5.29;99.15;98283.84;4949336;29;19978;-70
2022/03/18 07:26:59;;;;;;;;;;;;;;;5.30;98.97;98282.91;4933044;29;19984;-70
2022/03/18 07:29:25;;;;;;;;;;;;;;;5.32;99.22;98283.59;4945294;29;20434;-70
2022/03/18 07:31:54;;;;;;;;;;;;;;;5.34;99.54;98280.84;4947754;29;19997;-70
2022/03/18 07:34:23;;;;;;;;;;;;;;;5.40;99.06;98286.31;4945452;29;19964;-70
2022/03/18 07:36:50;;;;;;;;;;;;;;;5.42;98.70;98286.19;4953395;29;19962;-70
2022/03/18 07:39:16;;;;;;;;;;;;;;;5.46;98.50;98292.75;4945362;29;19957;-69
2022/03/18 07:41:42;;;;;;;;;;;;;;;5.51;98.71;98284.53;4946517;29;19955;-70
2022/03/18 07:44:08;;;;;;;;;;;;;;;5.54;98.56;98284.22;4953002;29;19989;-70
2022/03/18 07:46:34;;;;;;;;;;;;;;;5.57;98.65;98286.56;4946416;29;19966;-70
2022/03/18 07:49:01;;;;;;;;;;;;;;;5.63;98.72;98284.22;4942296;29;19956;-70
2022/03/18 07:51:27;;;;;;;;;;;;;;;5.69;98.41;98291.47;4951797;29;19969;-70
2022/03/18 07:53:53;;;;;;;;;;;;;;;5.73;97.66;98286.78;4948166;29;20005;-70
2022/03/18 07:56:19;;;;;;;;;;;;;;;5.79;97.56;98290.59;4947761;29;19967;-70
2022/03/18 07:58:45;;;;;;;;;;;;;;;5.82;97.31;98282.53;4941497;29;20013;-70
2022/03/18 08:01:11;;;;;;;;;;;;;;;5.88;96.87;98281.97;4949809;29;19984;-70
2022/03/18 08:03:37;;;;;;;;;;;;;;;5.95;96.86;98285.66;4951415;29;19946;-70
2022/03/18 08:06:03;;;;;;;;;;;;;;;6.07;98.29;98291.50;4945067;29;20409;-70
2022/03/18 08:08:29;;;;;;;;;;;;;;;6.30;98.82;98297.97;4942467;29;19971;-69
2022/03/18 08:10:54;;;;;;;;;;;;;;;6.71;96.45;98301.00;4931173;29;19958;-70
2022/03/18 08:13:21;;;;;;;;;;;;;;;6.85;93.84;98306.72;4946792;29;19964;-70
2022/03/18 08:15:47;;;;;;;;;;;;;;;6.77;91.76;98307.44;4941271;29;19953;-70
2022/03/18 08:18:13;;;;;;;;;;;;;;;6.68;91.94;98306.53;4946280;29;19956;-70
2022/03/18 08:20:40;;;;;;;;;;;;;;;6.65;93.25;98312.03;4946394;29;19957;-70
2022/03/18 08:23:09;;;;;;;;;;;;;;;6.59;92.91;98314.41;4950807;29;19954;-70
2022/03/18 08:25:35;;;;;;;;;;;;;;;6.59;93.19;98315.22;4951785;29;20000;-70
2022/03/18 08:28:01;;;;;;;;;;;;;;;6.58;92.67;98311.00;4946063;29;19996;-70
2022/03/18 08:30:27;;;;;;;;;;;;;;;6.63;93.13;98320.97;4941013;29;19969;-70
2022/03/18 08:32:53;;;;;;;;;;;;;;;6.64;92.71;98328.66;4950691;29;19954;-70
2022/03/18 08:35:19;;;;;;;;;;;;;;;6.76;92.87;98324.06;4949391;29;19961;-70
2022/03/18 08:37:57;;;;;;;;;;;;;;;6.77;91.21;98328.28;4945037;29;19956;-70
2022/03/18 08:40:33;;;;;;;;;;;;;;;6.73;91.78;98326.94;4946278;29;19965;-70
2022/03/18 08:42:59;;;;;;;;;;;;;;;6.72;91.70;98325.31;4946771;29;20388;-70
2022/03/18 08:45:26;;;;;;;;;;;;;;;6.73;91.99;98321.72;4945306;29;20418;-70
2022/03/18 08:47:53;;;;;;;;;;;;;;;6.75;92.52;98325.00;4949020;29;19963;-70
2022/03/18 08:50:21;;;;;;;;;;;;;;;6.76;91.35;98326.69;4939837;29;20372;-70
2022/03/18 08:52:49;;;;;;;;;;;;;;;6.68;91.42;98330.00;4946845;29;19963;-70
2022/03/18 08:55:15;;;;;;;;;;;;;;;6.69;91.75;98333.41;4947014;29;19954;-70
2022/03/18 08:57:41;;;;;;;;;;;;;;;6.71;91.77;98332.31;4944501;29;19971;-70
2022/03/18 09:00:09;;;;;;;;;;;;;;;6.76;92.07;98331.88;4941673;29;19958;-70
2022/03/18 09:02:35;;;;;;;;;;;;;;;6.80;91.58;98330.59;4936107;29;20338;-70
2022/03/18 09:05:01;;;;;;;;;;;;;;;6.80;91.25;98327.19;4944607;29;19983;-70
2022/03/18 09:07:27;;;;;;;;;;;;;;;6.81;91.02;98337.47;4947023;29;19945;-71
2022/03/18 09:09:54;;;;;;;;;;;;;;;6.79;91.29;98343.81;4942550;29;19969;-70
2022/03/18 09:12:19;;;;;;;;;;;;;;;6.79;91.68;98330.78;4952018;29;19957;-70
2022/03/18 09:14:45;;;;;;;;;;;;;;;6.78;91.12;98342.16;4947600;29;19985;-70
2022/03/18 09:17:11;;;;;;;;;;;;;;;6.78;91.21;98344.75;4942958;29;19960;-70
2022/03/18 09:19:37;;;;;;;;;;;;;;;6.73;90.30;98341.78;4949118;29;19960;-70
2022/03/18 09:22:05;;;;;;;;;;;;;;;6.70;91.16;98356.75;4950554;29;19979;-70
2022/03/18 09:24:31;;;;;;;;;;;;;;;6.72;90.64;98351.41;4944501;29;20425;-70
2022/03/18 09:26:56;;;;;;;;;;;;;;;6.73;89.66;98355.63;4944017;29;19972;-70
2022/03/18 09:29:25;;;;;;;;;;;;;;;6.76;90.43;98365.78;4943831;29;19965;-70
2022/03/18 09:31:51;;;;;;;;;;;;;;;6.88;90.91;98361.97;4951812;29;19955;-69
2022/03/18 09:34:17;;;;;;;;;;;;;;;7.00;90.09;98357.38;4944353;29;19957;-70
2022/03/18 09:36:44;;;;;;;;;;;;;;;7.14;90.54;98357.84;4945901;29;19955;-70
2022/03/18 09:39:09;;;;;;;;;;;;;;;7.22;88.77;98363.13;4944791;29;19961;-70
2022/03/18 09:41:35;;;;;;;;;;;;;;;7.27;88.07;98353.91;4945073;29;19960;-70
2022/03/18 09:44:01;;;;;;;;;;;;;;;7.31;88.27;98365.69;4944758;29;19953;-70
2022/03/18 09:46:27;;;;;;;;;;;;;;;7.38;88.17;98357.25;4945062;29;20057;-70
2022/03/18 09:48:54;;;;;;;;;;;;;;;7.41;87.99;98360.38;4943312;29;19965;-70
2022/03/18 09:51:20;;;;;;;;;;;;;;;7.43;86.15;98355.00;4946382;29;20423;-70
2022/03/18 09:53:46;;;;;;;;;;;;;;;7.38;85.76;98352.03;4944943;29;20431;-70
2022/03/18 09:56:12;;;;;;;;;;;;;;;7.38;85.00;98371.13;4947080;29;19957;-70
2022/03/18 09:58:38;;;;;;;;;;;;;;;7.39;85.96;98372.78;4943362;29;19960;-69
2022/03/18 10:01:04;;;;;;;;;;;;;;;7.38;85.23;98370.31;4945803;29;19991;-69
2022/03/18 10:03:36;;;;;;;;;;;;;;;7.34;84.94;98366.34;4940880;29;19963;-70
2022/03/18 10:06:04;;;;;;;;;;;;;;;7.36;85.52;98374.84;4943586;29;20441;-70
2022/03/18 10:08:35;;;;;;;;;;;;;;;7.31;83.59;98376.13;4947208;29;19961;-70
2022/03/18 10:11:21;;;;;;;;;;;;;;;7.30;83.06;98373.66;4950488;29;19953;-70
2022/03/18 10:14:02;;;;;;;;;;;;;;;7.29;82.71;98366.81;4942232;29;20298;-69
2022/03/18 10:16:40;;;;;;;;;;;;;;;7.32;82.85;98366.50;4939775;29;19955;-70
2022/03/18 10:19:07;;;;;;;;;;;;;;;7.34;82.17;98374.19;4945586;29;19952;-70
2022/03/18 10:21:34;;;;;;;;;;;;;;;7.37;82.45;98384.31;4946341;28;20304;-70
2022/03/18 10:24:09;;;;;;;;;;;;;;;7.44;83.81;98382.75;4950837;29;19962;-70
2022/03/18 10:26:37;;;;;;;;;;;;;;;7.54;83.76;98378.28;4947470;29;19998;-72
2022/03/18 10:29:03;;;;;;;;;;;;;;;7.63;81.16;98369.53;4946558;29;19964;-70
2022/03/18 10:31:29;;;;;;;;;;;;;;;7.72;80.99;98367.78;4948196;29;19964;-70
2022/03/18 10:39:29;;;;;;;;;;;;;;;8.08;78.76;98375.53;4946138;29;19959;-70
2022/03/18 10:41:57;;;;;;;;;;;;;;;8.19;80.16;98366.59;4946576;29;19964;-70
2022/03/18 10:44:23;;;;;;;;;;;;;;;8.31;76.33;98337.44;4949516;29;19967;-70
2022/03/18 10:46:50;;;;;;;;;;;;;;;8.30;73.94;98337.59;4954531;29;20022;-70
2022/03/18 10:49:17;;;;;;;;;;;;;;;8.36;76.33;98351.81;4942219;29;19953;-70
2022/03/18 10:51:43;;;;;;;;;;;;;;;8.40;76.01;98353.16;4950271;29;19959;-70
2022/03/18 10:54:08;;;;;;;;;;;;;;;8.48;75.95;98351.44;4947620;29;20462;-70
2022/03/18 10:56:55;;;;;;;;;;;;;;;8.59;75.52;98354.72;4948719;29;19962;-70
2022/03/18 10:59:22;;;;;;;;;;;;;;;8.73;74.09;98333.19;4951764;29;19955;-70
2022/03/18 11:01:48;;;;;;;;;;;;;;;8.89;75.40;98346.34;4945185;29;19947;-70
2022/03/18 11:04:15;;;;;;;;;;;;;;;9.02;75.00;98352.91;4947902;29;19950;-70
2022/03/18 11:06:42;;;;;;;;;;;;;;;9.01;72.80;98328.53;4951584;29;19956;-69
2022/03/18 11:09:11;;;;;;;;;;;;;;;9.10;73.92;98345.88;4943469;29;19952;-70
2022/03/18 11:11:39;;;;;;;;;;;;;;;9.15;73.98;98334.91;4948420;29;19955;-70
2022/03/18 11:14:06;;;;;;;;;;;;;;;9.24;72.26;98325.28;4947879;29;19953;-70
2022/03/18 11:16:39;;;;;;;;;;;;;;;9.25;69.08;98298.13;4948235;29;19958;-70
2022/03/18 11:19:08;;;;;;;;;;;;;;;9.29;69.19;98304.66;4945910;29;19947;-70
2022/03/18 11:21:40;;;;;;;;;;;;;;;9.25;70.43;98317.25;4943895;29;19958;-70
2022/03/18 11:24:07;;;;;;;;;;;;;;;9.36;70.38;98321.34;4951760;29;20002;-70
2022/03/18 11:26:34;;;;;;;;;;;;;;;9.48;71.46;98334.94;4947427;29;20450;-70
2022/03/18 11:29:13;;;;;;;;;;;;;;;9.57;68.54;98305.13;4943669;29;19956;-70
2022/03/18 11:31:39;;;;;;;;;;;;;;;9.67;69.16;98318.06;4946859;29;19959;-70
2022/03/18 11:34:07;;;;;;;;;;;;;;;9.77;69.65;98310.03;4949465;28;19963;-70
2022/03/18 11:36:34;;;;;;;;;;;;;;;9.94;67.73;98294.09;4947450;29;19953;-71
2022/03/18 11:39:02;;;;;;;;;;;;;;;10.06;69.68;98315.53;4945839;29;19954;-70
2022/03/18 11:41:48;;;;;;;;;;;;;;;10.06;66.15;98265.72;4945218;29;19965;-70
2022/03/18 11:44:41;;;;;;;;;;;;;;;10.04;67.43;98283.44;4949717;29;20286;-70
2022/03/18 11:47:18;;;;;;;;;;;;;;;10.10;66.58;98281.91;4934422;29;19954;-70
2022/03/18 11:49:44;;;;;;;;;;;;;;;9.99;64.49;98253.47;4952090;29;19946;-70
2022/03/18 11:52:10;;;;;;;;;;;;;;;10.12;68.54;98295.69;4949003;29;20017;-70
2022/03/18 11:54:52;;;;;;;;;;;;;;;10.32;67.11;98280.41;4947223;29;19966;-70
2022/03/18 11:57:34;;;;;;;;;;;;;;;10.45;66.23;98259.66;4941189;29;19953;-71
2022/03/18 12:00:05;;;;;;;;;;;;;;;10.56;66.25;98269.78;4944971;29;19954;-70
2022/03/18 12:02:32;;;;;;;;;;;;;;;10.67;62.03;98223.97;4948184;29;19957;-70
2022/03/18 12:04:58;;;;;;;;;;;;;;;10.59;62.36;98223.22;4947190;29;19968;-70
2022/03/18 12:07:28;;;;;;;;;;;;;;;10.43;64.16;98255.59;4949368;29;19960;-70
2022/03/18 12:09:55;;;;;;;;;;;;;;;10.46;63.84;98248.19;4946732;29;20292;-70
2022/03/18 12:12:22;;;;;;;;;;;;;;;10.62;64.87;98259.59;4942557;29;19962;-71
2022/03/18 12:14:49;;;;;;;;;;;;;;;10.71;64.75;98269.88;4947086;29;19960;-70
2022/03/18 12:17:15;;;;;;;;;;;;;;;10.66;61.32;98227.56;4953025;29;19958;-71
2022/03/18 12:19:47;;;;;;;;;;;;;;;10.63;63.32;98248.13;4943778;29;19951;-70
2022/03/18 12:22:13;;;;;;;;;;;;;;;10.54;61.54;98234.19;4928115;29;20407;-70
2022/03/18 12:24:40;;;;;;;;;;;;;;;10.38;61.29;98229.06;4944052;29;19976;-70
2022/03/18 12:27:06;;;;;;;;;;;;;;;10.38;63.48;98250.88;4947739;29;20036;-70
2022/03/18 12:29:32;;;;;;;;;;;;;;;10.42;61.49;98220.69;4949623;29;19987;-70
2022/03/18 12:32:09;;;;;;;;;;;;;;;10.49;63.79;98258.34;4942609;29;19959;-70
2022/03/18 12:34:36;;;;;;;;;;;;;;;10.96;67.43;98293.31;4946182;29;20321;-69
2022/03/18 12:37:03;;;;;;;;;;;;;;;11.24;61.72;98225.31;4948195;29;19969;-69
2022/03/18 12:39:29;;;;;;;;;;;;;;;11.14;58.24;98177.50;4948645;29;20431;-69
2022/03/18 12:42:12;;;;;;;;;;;;;;;11.00;62.38;98242.09;4947966;29;19956;-70
2022/03/18 12:44:38;;;;;;;;;;;;;;;10.83;61.45;98228.28;4945100;28;19969;-70
2022/03/18 12:47:05;;;;;;;;;;;;;;;10.77;63.76;98250.81;4948223;29;19952;-70
2022/03/18 12:49:35;;;;;;;;;;;;;;;10.76;65.00;98266.72;4951437;29;20312;-69
2022/03/18 12:52:01;;;;;;;;;;;;;;;10.71;65.01;98269.88;4943885;29;20420;-69
2022/03/18 12:54:28;;;;;;;;;;;;;;;10.67;62.83;98244.16;4941733;29;19981;-70
2022/03/18 12:56:54;;;;;;;;;;;;;;;10.66;63.06;98242.50;4945787;29;20434;-70
2022/03/18 12:59:20;;;;;;;;;;;;;;;10.68;63.54;98253.66;4948412;29;19955;-70
2022/03/18 13:01:50;;;;;;;;;;;;;;;10.72;63.73;98254.94;4930172;29;19954;-70
2022/03/18 13:04:17;;;;;;;;;;;;;;;10.72;63.57;98253.13;4941649;29;19964;-70
2022/03/18 13:06:43;;;;;;;;;;;;;;;10.75;63.73;98251.94;4950988;29;20036;-70
2022/03/18 13:09:10;;;;;;;;;;;;;;;10.64;63.91;98247.91;4943423;29;20066;-70
2022/03/18 13:11:39;;;;;;;;;;;;;;;10.57;63.18;98245.19;4946055;29;19952;-70
2022/03/18 13:14:06;;;;;;;;;;;;;;;10.53;63.19;98237.84;4946161;29;19959;-70
2022/03/18 13:16:35;;;;;;;;;;;;;;;10.57;64.95;98260.91;4945679;29;19964;-70